createdAt,value
2023-04-21T00:02:22.080Z,100.00
2023-04-21T00:04:51.712Z,100.00
2023-04-21T00:07:20.325Z,100.00
2023-04-21T00:09:47.940Z,100.00
2023-04-21T00:12:15.613Z,100.00
2023-04-21T00:14:43.308Z,100.00
2023-04-21T00:17:10.945Z,100.00
2023-04-21T00:19:38.522Z,100.00
2023-04-21T00:22:12.061Z,100.00
2023-04-21T00:24:39.613Z,100.00
2023-04-21T00:27:07.206Z,100.00
2023-04-21T00:29:34.794Z,100.00
2023-04-21T00:32:03.792Z,100.00
2023-04-21T00:34:31.418Z,100.00
2023-04-21T00:36:58.981Z,100.00
2023-04-21T00:39:27.893Z,100.00
2023-04-21T00:41:55.672Z,100.00
2023-04-21T00:44:23.379Z,100.00
2023-04-21T00:46:50.973Z,100.00
2023-04-21T00:49:18.789Z,100.00
2023-04-21T00:51:46.775Z,100.00
2023-04-21T00:54:15.277Z,100.00
2023-04-21T00:56:44.388Z,100.00
2023-04-21T00:59:12.030Z,100.00
2023-04-21T01:01:40.147Z,100.00
2023-04-21T01:04:10.288Z,100.00
2023-04-21T01:06:38.166Z,100.00
2023-04-21T01:09:07.928Z,100.00
2023-04-21T01:11:36.256Z,100.00
2023-04-21T01:14:05.357Z,100.00
2023-04-21T01:16:33.714Z,100.00
2023-04-21T01:19:02.383Z,100.00
2023-04-21T01:21:31.991Z,100.00
2023-04-21T01:24:01.116Z,100.00
2023-04-21T01:26:28.642Z,100.00
2023-04-21T01:28:57.978Z,100.00
2023-04-21T01:31:27.355Z,100.00
2023-04-21T01:33:55.415Z,100.00
2023-04-21T01:36:23.441Z,100.00
2023-04-21T01:38:51.393Z,100.00
2023-04-21T01:41:20.809Z,100.00
2023-04-21T01:43:48.488Z,100.00
2023-04-21T01:46:16.237Z,100.00
2023-04-21T01:48:43.907Z,100.00
2023-04-21T01:51:11.558Z,100.00
2023-04-21T01:53:39.191Z,100.00
2023-04-21T01:56:07.444Z,100.00
2023-04-21T01:58:36.317Z,100.00
2023-04-21T02:01:04.085Z,100.00
2023-04-21T02:03:31.880Z,100.00
2023-04-21T02:05:59.547Z,100.00
2023-04-21T02:08:27.138Z,100.00
2023-04-21T02:10:54.871Z,100.00
2023-04-21T02:13:22.470Z,100.00
2023-04-21T02:15:59.564Z,100.00
2023-04-21T02:18:34.528Z,100.00
2023-04-21T02:21:02.926Z,100.00
2023-04-21T02:23:30.518Z,100.00
2023-04-21T02:25:58.089Z,100.00
2023-04-21T02:28:25.619Z,100.00
2023-04-21T02:30:54.543Z,100.00
2023-04-21T02:33:22.217Z,100.00
2023-04-21T02:35:49.828Z,100.00
2023-04-21T02:38:17.390Z,100.00
2023-04-21T02:40:44.916Z,100.00
2023-04-21T02:43:12.694Z,100.00
2023-04-21T02:45:40.566Z,100.00
2023-04-21T02:48:09.686Z,100.00
2023-04-21T02:50:38.043Z,100.00
2023-04-21T02:53:05.696Z,100.00
2023-04-21T02:55:33.336Z,100.00
2023-04-21T02:58:00.846Z,100.00
2023-04-21T03:00:28.441Z,100.00
2023-04-21T03:02:56.302Z,100.00
2023-04-21T03:05:25.331Z,100.00
2023-04-21T03:07:52.895Z,100.00
2023-04-21T03:10:20.477Z,100.00
2023-04-21T03:12:48.255Z,100.00
2023-04-21T03:15:16.844Z,100.00
2023-04-21T03:17:44.436Z,100.00
2023-04-21T03:20:12.724Z,100.00
2023-04-21T03:22:41.615Z,100.00
2023-04-21T03:25:09.171Z,100.00
2023-04-21T03:27:37.425Z,100.00
2023-04-21T03:30:06.676Z,100.00
2023-04-21T03:32:34.335Z,100.00
2023-04-21T03:35:01.905Z,100.00
2023-04-21T03:37:29.482Z,100.00
2023-04-21T03:39:58.548Z,100.00
2023-04-21T03:42:26.275Z,100.00
2023-04-21T03:44:53.854Z,100.00
2023-04-21T03:47:21.416Z,100.00
2023-04-21T03:49:48.940Z,100.00
2023-04-21T03:52:16.574Z,100.00
2023-04-21T03:54:44.088Z,100.00
2023-04-21T03:57:12.994Z,100.00
2023-04-21T03:59:40.573Z,100.00
2023-04-21T04:02:08.283Z,100.00
2023-04-21T04:04:36.633Z,100.00
2023-04-21T04:07:04.933Z,100.00
2023-04-21T04:09:33.328Z,100.00
2023-04-21T04:12:02.792Z,100.00
2023-04-21T04:14:31.712Z,100.00
2023-04-21T04:16:59.848Z,100.00
2023-04-21T04:19:31.423Z,100.00
2023-04-21T04:21:59.833Z,100.00
2023-04-21T04:24:27.656Z,100.00
2023-04-21T04:26:58.168Z,100.00
2023-04-21T04:29:26.978Z,100.00
2023-04-21T04:31:56.230Z,100.00
2023-04-21T04:34:24.163Z,100.00
2023-04-21T04:36:51.841Z,100.00
2023-04-21T04:39:19.651Z,100.00
2023-04-21T04:41:48.597Z,100.00
2023-04-21T04:44:18.083Z,100.00
2023-04-21T04:46:46.417Z,100.00
2023-04-21T04:49:15.453Z,100.00
2023-04-21T04:51:43.051Z,100.00
2023-04-21T04:54:10.654Z,100.00
2023-04-21T04:56:38.307Z,100.00
2023-04-21T04:59:06.684Z,100.00
2023-04-21T05:01:34.286Z,100.00
2023-04-21T05:04:02.097Z,100.00
2023-04-21T05:06:32.156Z,100.00
2023-04-21T05:08:59.784Z,100.00
2023-04-21T05:11:27.379Z,100.00
2023-04-21T05:13:55.071Z,100.00
2023-04-21T05:16:22.738Z,100.00
2023-04-21T05:18:54.003Z,100.00
2023-04-21T05:21:27.483Z,100.00
2023-04-21T05:23:57.187Z,100.00
2023-04-21T05:26:25.650Z,100.00
2023-04-21T05:28:53.221Z,100.00
2023-04-21T05:31:20.888Z,100.00
2023-04-21T05:33:48.428Z,100.00
2023-04-21T05:36:16.021Z,100.00
2023-04-21T05:38:43.656Z,100.00
2023-04-21T05:41:12.656Z,100.00
2023-04-21T05:43:40.209Z,100.00
2023-04-21T05:46:10.246Z,100.00
2023-04-21T05:48:38.060Z,100.00
2023-04-21T05:51:12.385Z,100.00
2023-04-21T05:53:40.055Z,100.00
2023-04-21T05:56:09.707Z,100.00
2023-04-21T05:58:39.108Z,100.00
2023-04-21T06:01:07.306Z,100.00
2023-04-21T06:03:35.083Z,100.00
2023-04-21T06:06:03.852Z,100.00
2023-04-21T06:08:31.512Z,100.00
2023-04-21T06:10:59.202Z,100.00
2023-04-21T06:13:27.769Z,100.00
2023-04-21T06:15:56.856Z,100.00
2023-04-21T06:18:25.086Z,100.00
2023-04-21T06:20:52.789Z,100.00
2023-04-21T06:23:20.548Z,100.00
2023-04-21T06:25:48.148Z,100.00
2023-04-21T06:28:15.681Z,100.00
2023-04-21T06:30:44.839Z,100.00
2023-04-21T06:33:13.685Z,100.00
2023-04-21T06:35:41.314Z,100.00
2023-04-21T06:38:09.782Z,100.00
2023-04-21T06:40:37.469Z,100.00
2023-04-21T06:43:05.142Z,100.00
2023-04-21T06:45:32.730Z,100.00
2023-04-21T06:48:00.352Z,100.00
2023-04-21T06:50:29.388Z,100.00
2023-04-21T06:52:56.973Z,100.00
2023-04-21T06:55:24.675Z,100.00
2023-04-21T06:57:52.356Z,100.00
2023-04-21T07:00:20.141Z,100.00
2023-04-21T07:02:47.928Z,100.00
2023-04-21T07:05:15.677Z,100.00
2023-04-21T07:07:44.591Z,100.00
2023-04-21T07:10:12.489Z,100.00
2023-04-21T07:12:40.138Z,100.00
2023-04-21T07:15:09.472Z,100.00
2023-04-21T07:17:37.100Z,100.00
2023-04-21T07:20:05.324Z,100.00
2023-04-21T07:22:34.521Z,100.00
2023-04-21T07:27:34.074Z,100.00
2023-04-21T07:30:01.746Z,100.00
2023-04-21T07:32:29.325Z,100.00
2023-04-21T07:34:56.900Z,100.00
2023-04-21T07:37:24.937Z,100.00
2023-04-21T07:39:52.681Z,100.00
2023-04-21T07:42:22.421Z,100.00
2023-04-21T07:44:50.304Z,100.00
2023-04-21T07:47:17.915Z,100.00
2023-04-21T07:49:45.628Z,100.00
2023-04-21T07:52:13.188Z,100.00
2023-04-21T07:54:40.831Z,100.00
2023-04-21T07:57:08.445Z,100.00
2023-04-21T07:59:37.331Z,100.00
2023-04-21T08:02:05.018Z,100.00
2023-04-21T08:04:32.849Z,100.00
2023-04-21T08:07:00.840Z,100.00
2023-04-21T08:09:28.599Z,100.00
2023-04-21T08:11:57.170Z,100.00
2023-04-21T08:14:26.767Z,100.00
2023-04-21T08:16:57.174Z,100.00
2023-04-21T08:19:25.159Z,100.00
2023-04-21T08:21:52.955Z,100.00
2023-04-21T08:24:20.985Z,100.00
2023-04-21T08:26:48.727Z,100.00
2023-04-21T08:29:16.584Z,100.00
2023-04-21T08:31:44.232Z,100.00
2023-04-21T08:34:13.601Z,100.00
2023-04-21T08:36:41.603Z,100.00
2023-04-21T08:39:09.388Z,100.00
2023-04-21T08:41:40.095Z,100.00
2023-04-21T08:44:07.683Z,100.00
2023-04-21T08:46:36.273Z,99.60
2023-04-21T08:49:04.145Z,100.00
2023-04-21T08:51:33.840Z,100.00
2023-04-21T08:54:01.457Z,100.00
2023-04-21T08:56:29.067Z,98.87
2023-04-21T08:58:57.624Z,98.74
2023-04-21T09:01:25.283Z,100.00
2023-04-21T09:03:53.154Z,99.67
2023-04-21T09:06:21.386Z,98.35
2023-04-21T09:08:56.536Z,99.14
2023-04-21T09:11:24.404Z,98.72
2023-04-21T09:13:52.877Z,97.10
2023-04-21T09:16:22.661Z,94.90
2023-04-21T09:18:51.464Z,96.09
2023-04-21T09:21:20.178Z,97.07
2023-04-21T09:23:51.655Z,92.63
2023-04-21T09:26:22.743Z,90.73
2023-04-21T09:28:52.151Z,89.65
2023-04-21T09:31:21.038Z,89.28
2023-04-21T09:36:21.914Z,86.46
2023-04-21T09:38:57.590Z,87.16
2023-04-21T09:41:40.884Z,87.14
2023-04-21T09:44:08.464Z,86.53
2023-04-21T09:46:37.657Z,85.23
2023-04-21T09:49:07.071Z,87.43
2023-04-21T09:54:28.501Z,86.73
2023-04-21T09:57:01.720Z,86.61
2023-04-21T09:59:31.377Z,87.20
2023-04-21T10:01:59.413Z,87.49
2023-04-21T10:04:28.897Z,87.65
2023-04-21T10:06:57.249Z,85.47
2023-04-21T10:09:27.040Z,84.45
2023-04-21T10:11:55.554Z,85.24
2023-04-21T10:14:26.174Z,85.56
2023-04-21T10:16:57.893Z,85.86
2023-04-21T10:19:26.419Z,83.79
2023-04-21T10:21:57.198Z,84.40
2023-04-21T10:24:24.881Z,84.88
2023-04-21T10:26:54.821Z,86.57
2023-04-21T10:29:43.765Z,85.34
2023-04-21T10:32:32.825Z,85.32
2023-04-21T10:35:00.652Z,84.71
2023-04-21T10:37:32.450Z,84.63
2023-04-21T10:40:00.205Z,85.77
2023-04-21T10:42:31.139Z,84.79
2023-04-21T10:45:18.077Z,85.53
2023-04-21T10:47:48.901Z,84.26
2023-04-21T10:50:22.721Z,83.20
2023-04-21T10:52:56.258Z,81.77
2023-04-21T10:55:27.460Z,82.30
2023-04-21T10:57:55.055Z,82.23
2023-04-21T11:00:25.373Z,79.85
2023-04-21T11:03:00.930Z,79.95
2023-04-21T11:05:34.559Z,81.04
2023-04-21T11:08:11.195Z,82.10
2023-04-21T11:10:50.853Z,81.71
2023-04-21T11:13:21.858Z,81.00
2023-04-21T11:16:01.504Z,81.08
2023-04-21T11:18:39.817Z,81.76
2023-04-21T11:21:17.811Z,82.42
2023-04-21T11:23:52.994Z,80.80
2023-04-21T11:26:25.922Z,79.52
2023-04-21T11:28:53.518Z,79.34
2023-04-21T11:31:22.490Z,82.03
2023-04-21T11:33:51.221Z,80.37
2023-04-21T11:36:22.512Z,76.05
2023-04-21T11:38:50.285Z,78.05
2023-04-21T11:41:22.160Z,80.37
2023-04-21T11:43:50.080Z,81.16
2023-04-21T11:46:18.884Z,80.96
2023-04-21T11:48:47.860Z,80.42
2023-04-21T11:51:16.621Z,79.27
2023-04-21T11:53:44.301Z,79.65
2023-04-21T11:56:12.747Z,80.10
2023-04-21T11:58:40.557Z,79.53
2023-04-21T12:01:11.058Z,79.20
2023-04-21T12:03:38.826Z,78.58
2023-04-21T12:06:08.403Z,77.40
2023-04-21T12:08:36.130Z,78.70
2023-04-21T12:11:03.884Z,77.33
2023-04-21T12:13:32.794Z,74.80
2023-04-21T12:16:03.872Z,74.59
2023-04-21T12:18:34.892Z,75.55
2023-04-21T12:21:04.217Z,76.23
2023-04-21T12:23:33.153Z,75.46
2023-04-21T12:26:01.362Z,75.76
2023-04-21T12:28:31.176Z,73.80
2023-04-21T12:30:58.811Z,74.26
2023-04-21T12:33:26.806Z,73.17
2023-04-21T12:35:54.498Z,74.65
2023-04-21T12:38:22.163Z,73.69
2023-04-21T12:40:51.054Z,74.87
2023-04-21T12:43:18.594Z,76.99
2023-04-21T12:45:46.366Z,74.85
2023-04-21T12:48:13.952Z,74.16
2023-04-21T12:50:41.527Z,72.81
2023-04-21T12:53:09.112Z,73.63
2023-04-21T12:55:37.202Z,73.71
2023-04-21T12:58:06.061Z,72.45
2023-04-21T13:00:35.843Z,72.86
2023-04-21T13:03:04.426Z,72.57
2023-04-21T13:05:34.933Z,72.75
2023-04-21T13:08:02.494Z,71.89
2023-04-21T13:10:30.183Z,72.64
2023-04-21T13:12:57.767Z,72.67
2023-04-21T13:15:26.644Z,73.42
2023-04-21T13:17:54.346Z,73.44
2023-04-21T13:20:22.414Z,73.93
2023-04-21T13:22:50.059Z,71.74
2023-04-21T13:25:17.841Z,72.63
2023-04-21T13:27:46.766Z,72.74
2023-04-21T13:30:15.750Z,73.16
2023-04-21T13:32:44.753Z,73.51
2023-04-21T13:35:12.598Z,73.88
2023-04-21T13:37:41.256Z,75.57
2023-04-21T13:40:10.799Z,75.61
2023-04-21T13:42:39.322Z,76.47
2023-04-21T13:45:08.012Z,75.18
2023-04-21T13:47:36.091Z,75.17
2023-04-21T13:50:05.725Z,74.64
2023-04-21T13:52:34.880Z,74.06
2023-04-21T13:55:02.759Z,73.27
2023-04-21T13:57:30.583Z,73.45
2023-04-21T13:59:58.220Z,73.82
2023-04-21T14:02:26.146Z,73.22
2023-04-21T14:04:54.532Z,74.14
2023-04-21T14:07:26.162Z,74.97
2023-04-21T14:09:54.363Z,74.89
2023-04-21T14:12:22.128Z,74.43
2023-04-21T14:14:49.992Z,74.51
2023-04-21T14:17:17.826Z,74.99
2023-04-21T14:19:45.428Z,73.85
2023-04-21T14:22:13.342Z,72.46
2023-04-21T14:24:42.484Z,72.37
2023-04-21T14:27:10.722Z,72.93
2023-04-21T14:29:38.359Z,71.90
2023-04-21T14:32:06.119Z,71.74
2023-04-21T14:34:33.827Z,72.92
2023-04-21T14:37:01.629Z,72.78
2023-04-21T14:39:29.245Z,72.50
2023-04-21T14:41:58.218Z,72.54
2023-04-21T14:44:25.842Z,72.53
2023-04-21T14:47:05.678Z,72.23
2023-04-21T14:49:37.394Z,72.41
2023-04-21T14:52:05.308Z,71.18
2023-04-21T14:54:32.874Z,72.04
2023-04-21T14:57:17.884Z,71.49
2023-04-21T14:59:47.151Z,71.59
2023-04-21T15:02:15.129Z,70.79
2023-04-21T15:04:42.914Z,71.84
2023-04-21T15:07:10.544Z,71.48
2023-04-21T15:09:39.076Z,71.03
2023-04-21T15:12:08.200Z,71.39
2023-04-21T15:14:40.246Z,72.15
2023-04-21T15:17:08.524Z,70.56
2023-04-21T15:19:36.419Z,69.96
2023-04-21T15:22:04.866Z,70.03
2023-04-21T15:24:32.570Z,70.35
2023-04-21T15:27:01.303Z,70.62
2023-04-21T15:29:30.309Z,69.71
2023-04-21T15:31:57.992Z,69.66
2023-04-21T15:34:25.931Z,69.51
2023-04-21T15:36:54.525Z,69.43
2023-04-21T15:39:22.194Z,69.93
2023-04-21T15:41:49.799Z,69.45
2023-04-21T15:44:17.297Z,69.67
2023-04-21T15:46:46.276Z,69.79
2023-04-21T15:49:13.984Z,70.11
2023-04-21T15:51:42.053Z,70.26
2023-04-21T15:54:10.360Z,69.42
2023-04-21T15:56:38.063Z,69.81
2023-04-21T15:59:05.993Z,70.43
2023-04-21T16:01:33.955Z,70.79
2023-04-21T16:04:03.489Z,70.58
2023-04-21T16:06:31.550Z,71.15
2023-04-21T16:08:59.178Z,71.42
2023-04-21T16:11:29.084Z,72.97
2023-04-21T16:13:57.122Z,73.51
2023-04-21T16:16:24.736Z,72.61
2023-04-21T16:18:52.378Z,73.37
2023-04-21T16:21:21.608Z,73.57
2023-04-21T16:23:49.302Z,73.90
2023-04-21T16:26:16.898Z,74.31
2023-04-21T16:28:44.542Z,74.32
2023-04-21T16:31:12.673Z,74.38
2023-04-21T16:33:40.578Z,75.10
2023-04-21T16:36:08.388Z,74.35
2023-04-21T16:38:37.426Z,74.16
2023-04-21T16:41:04.995Z,74.63
2023-04-21T16:43:32.641Z,74.92
2023-04-21T16:46:00.333Z,74.58
2023-04-21T16:48:28.070Z,74.87
2023-04-21T16:50:55.786Z,74.54
2023-04-21T16:53:25.363Z,74.88
2023-04-21T16:55:54.412Z,75.26
2023-04-21T16:58:24.236Z,75.67
2023-04-21T17:00:52.014Z,75.46
2023-04-21T17:03:19.838Z,75.64
2023-04-21T17:05:47.578Z,75.39
2023-04-21T17:08:15.326Z,75.39
2023-04-21T17:10:42.894Z,75.70
2023-04-21T17:13:11.846Z,75.35
2023-04-21T17:15:39.659Z,75.67
2023-04-21T17:18:07.363Z,70.89
2023-04-21T17:20:35.076Z,72.00
2023-04-21T17:23:02.652Z,74.97
2023-04-21T17:25:30.259Z,78.92
2023-04-21T17:27:57.802Z,83.70
2023-04-21T17:30:27.036Z,86.93
2023-04-21T17:33:03.907Z,88.17
2023-04-21T17:35:37.932Z,88.85
2023-04-21T17:38:06.658Z,91.67
2023-04-21T17:40:34.320Z,90.93
2023-04-21T17:43:01.927Z,91.06
2023-04-21T17:45:31.187Z,91.49
2023-04-21T17:47:58.879Z,91.99
2023-04-21T17:50:27.625Z,93.60
2023-04-21T17:52:55.312Z,93.90
2023-04-21T17:55:23.321Z,92.87
2023-04-21T17:57:51.055Z,98.39
2023-04-21T18:00:19.980Z,99.16
2023-04-21T18:02:49.045Z,99.08
2023-04-21T18:05:17.114Z,99.38
2023-04-21T18:07:44.851Z,96.74
2023-04-21T18:10:12.764Z,96.86
2023-04-21T18:12:40.695Z,96.03
2023-04-21T18:15:10.308Z,94.11
2023-04-21T18:17:38.145Z,92.33
2023-04-21T18:20:08.419Z,91.18
2023-04-21T18:22:36.040Z,90.97
2023-04-21T18:25:04.030Z,89.39
2023-04-21T18:27:31.599Z,89.28
2023-04-21T18:29:59.163Z,89.53
2023-04-21T18:32:26.813Z,89.03
2023-04-21T18:34:54.594Z,87.92
2023-04-21T18:37:23.628Z,87.42
2023-04-21T18:39:51.196Z,87.42
2023-04-21T18:42:18.827Z,89.41
2023-04-21T18:44:46.442Z,90.66
2023-04-21T18:47:15.361Z,92.60
2023-04-21T18:49:42.999Z,94.70
2023-04-21T18:52:10.585Z,97.26
2023-04-21T18:54:39.725Z,100.00
2023-04-21T18:57:08.504Z,100.00
2023-04-21T18:59:36.075Z,100.00
2023-04-21T19:02:05.986Z,100.00
2023-04-21T19:04:33.885Z,97.88
2023-04-21T19:07:01.866Z,100.00
2023-04-21T19:09:29.875Z,100.00
2023-04-21T19:11:58.836Z,100.00
2023-04-21T19:14:27.818Z,100.00
2023-04-21T19:16:55.550Z,100.00
2023-04-21T19:19:24.017Z,100.00
2023-04-21T19:21:51.558Z,100.00
2023-04-21T19:24:19.171Z,100.00
2023-04-21T19:26:46.881Z,100.00
2023-04-21T19:29:15.909Z,100.00
2023-04-21T19:31:43.526Z,100.00
2023-04-21T19:34:11.131Z,100.00
2023-04-21T19:36:38.770Z,100.00
2023-04-21T19:39:07.349Z,100.00
2023-04-21T19:41:34.927Z,100.00
2023-04-21T19:44:02.471Z,100.00
2023-04-21T19:46:32.075Z,100.00
2023-04-21T19:48:59.717Z,100.00
2023-04-21T19:51:27.875Z,100.00
2023-04-21T19:54:10.112Z,100.00
2023-04-21T19:56:38.747Z,100.00
2023-04-21T19:59:06.373Z,100.00
2023-04-21T20:01:35.593Z,100.00
2023-04-21T20:04:04.068Z,100.00
2023-04-21T20:06:32.032Z,100.00
2023-04-21T20:08:59.677Z,100.00
2023-04-21T20:11:29.185Z,100.00
2023-04-21T20:13:56.961Z,100.00
2023-04-21T20:16:26.228Z,100.00
2023-04-21T20:18:55.475Z,100.00
2023-04-21T20:21:23.204Z,100.00
2023-04-21T20:23:50.738Z,100.00
2023-04-21T20:26:18.455Z,100.00
2023-04-21T20:28:46.033Z,100.00
2023-04-21T20:31:13.689Z,100.00
2023-04-21T20:33:41.245Z,100.00
2023-04-21T20:36:11.764Z,100.00
2023-04-21T20:38:39.292Z,100.00
2023-04-21T20:41:07.097Z,100.00
2023-04-21T20:43:34.762Z,100.00
2023-04-21T20:46:03.306Z,100.00
2023-04-21T20:48:31.378Z,100.00
2023-04-21T20:50:58.945Z,100.00
2023-04-21T20:53:27.935Z,100.00
2023-04-21T20:55:55.698Z,100.00
2023-04-21T20:58:24.402Z,100.00
2023-04-21T21:00:52.187Z,100.00
2023-04-21T21:03:20.558Z,100.00
2023-04-21T21:05:48.654Z,100.00
2023-04-21T21:08:16.402Z,100.00
2023-04-21T21:10:45.411Z,100.00
2023-04-21T21:13:12.962Z,100.00
2023-04-21T21:15:40.551Z,100.00
2023-04-21T21:18:08.317Z,100.00
2023-04-21T21:20:36.094Z,100.00
2023-04-21T21:23:03.770Z,100.00
2023-04-21T21:25:31.339Z,100.00
2023-04-21T21:28:00.319Z,100.00
2023-04-21T21:30:27.962Z,100.00
2023-04-21T21:32:55.916Z,100.00
2023-04-21T21:35:23.701Z,100.00
2023-04-21T21:37:51.314Z,100.00
2023-04-21T21:40:19.030Z,100.00
2023-04-21T21:42:46.576Z,100.00
2023-04-21T21:45:15.756Z,100.00
2023-04-21T21:47:45.634Z,100.00
2023-04-21T21:50:13.700Z,100.00
2023-04-21T21:52:41.554Z,100.00
2023-04-21T21:55:10.135Z,100.00
2023-04-21T21:57:37.983Z,100.00
2023-04-21T22:00:08.084Z,100.00
2023-04-21T22:02:37.415Z,100.00
2023-04-21T22:05:05.686Z,100.00
2023-04-21T22:07:33.289Z,100.00
2023-04-21T22:10:01.166Z,100.00
2023-04-21T22:12:28.807Z,100.00
2023-04-21T22:14:56.554Z,100.00
2023-04-21T22:17:24.781Z,100.00
2023-04-21T22:19:53.736Z,100.00
2023-04-21T22:22:21.506Z,100.00
2023-04-21T22:24:49.125Z,100.00
2023-04-21T22:27:16.709Z,100.00
2023-04-21T22:29:44.391Z,100.00
2023-04-21T22:32:12.062Z,100.00
2023-04-21T22:34:39.818Z,100.00
2023-04-21T22:37:08.771Z,100.00
2023-04-21T22:39:38.027Z,100.00
2023-04-21T22:42:06.836Z,100.00
2023-04-21T22:44:34.462Z,100.00
2023-04-21T22:47:02.095Z,100.00
2023-04-21T22:49:29.835Z,100.00
2023-04-21T22:51:57.482Z,100.00
2023-04-21T22:54:26.449Z,100.00
2023-04-21T22:56:54.199Z,100.00
2023-04-21T22:59:22.031Z,100.00
2023-04-21T23:01:49.952Z,100.00
2023-04-21T23:04:17.915Z,100.00
2023-04-21T23:06:45.595Z,100.00
2023-04-21T23:09:13.407Z,100.00
2023-04-21T23:11:45.205Z,100.00
2023-04-21T23:14:12.783Z,100.00
2023-04-21T23:16:40.640Z,100.00
2023-04-21T23:19:08.615Z,100.00
2023-04-21T23:21:36.389Z,100.00
2023-04-21T23:24:04.085Z,100.00
2023-04-21T23:26:31.663Z,100.00
2023-04-21T23:29:00.708Z,100.00
2023-04-21T23:31:28.650Z,100.00
2023-04-21T23:33:56.590Z,100.00
2023-04-21T23:36:24.238Z,100.00
2023-04-21T23:38:51.890Z,100.00
2023-04-21T23:41:19.519Z,100.00
2023-04-21T23:43:47.338Z,100.00
2023-04-21T23:46:16.419Z,100.00
2023-04-21T23:48:44.173Z,100.00
2023-04-21T23:51:11.845Z,100.00
2023-04-21T23:53:39.491Z,100.00
2023-04-21T23:56:07.621Z,100.00
2023-04-21T23:58:35.316Z,100.00
